Time;durP1;ratioP1;P1;durP2;ratioP2;P2;SDS_P1;SDS_P2;PMS_P1;PMS_P2;Temp;Humidity;BMP_temperature;BMP_pressure;BME280_temperature;BME280_humidity;BME280_pressure;Samples;Min_cycle;Max_cycle;Signal;HPM_P1;HPM_P2
2022/05/24 00:01:36;;;;;;;2.85;1.92;;;22.80;54.80;;;;;;4958017;28;20195;-71
2022/05/24 00:04:03;;;;;;;5.28;1.95;;;22.90;55.50;;;;;;4957026;29;20273;-71
2022/05/24 00:06:32;;;;;;;2.40;2.20;;;22.90;54.90;;;;;;4956894;28;20602;-71
2022/05/24 00:09:00;;;;;;;1.70;1.60;;;22.80;54.80;;;;;;4957012;28;20199;-71
2022/05/24 00:11:28;;;;;;;3.33;1.90;;;22.80;54.80;;;;;;4958374;28;20195;-71
2022/05/24 00:13:55;;;;;;;1.85;1.55;;;22.90;54.80;;;;;;4956714;28;20199;-71
2022/05/24 00:16:22;;;;;;;1.85;1.75;;;22.80;54.70;;;;;;4956580;28;20223;-71
2022/05/24 00:18:49;;;;;;;2.60;1.70;;;22.80;54.60;;;;;;4956783;29;20279;-71
2022/05/24 00:21:17;;;;;;;1.58;1.45;;;22.80;54.60;;;;;;4958150;28;20270;-71
2022/05/24 00:23:44;;;;;;;1.60;1.50;;;22.90;54.60;;;;;;4958284;28;20195;-71
2022/05/24 00:26:16;;;;;;;1.88;1.60;;;22.80;54.60;;;;;;4956529;28;20269;-71
2022/05/24 00:28:44;;;;;;;1.90;1.80;;;22.80;55.10;;;;;;4956607;28;20191;-71
2022/05/24 00:31:11;;;;;;;1.70;1.60;;;22.80;54.50;;;;;;4956626;29;20207;-71
2022/05/24 00:33:38;;;;;;;3.15;1.95;;;22.80;54.50;;;;;;4956339;28;20205;-71
2022/05/24 00:36:07;;;;;;;2.30;1.70;;;22.80;54.60;;;;;;4956329;28;20260;-71
2022/05/24 00:38:36;;;;;;;2.00;1.55;;;22.90;54.60;;;;;;4956509;29;20202;-71
2022/05/24 00:41:10;;;;;;;1.70;1.60;;;22.90;54.60;;;;;;4957642;28;20222;-71
2022/05/24 00:43:40;;;;;;;2.25;1.63;;;22.90;54.80;;;;;;4957239;28;20278;-71
2022/05/24 00:46:11;;;;;;;1.77;1.50;;;22.80;54.70;;;;;;4956071;28;20233;-71
2022/05/24 00:48:39;;;;;;;1.95;1.60;;;22.90;54.90;;;;;;4957284;28;20246;-71
2022/05/24 00:51:07;;;;;;;1.60;1.50;;;22.80;54.80;;;;;;4956026;28;20205;-71
2022/05/24 00:53:35;;;;;;;2.38;1.60;;;22.80;54.80;;;;;;4956768;28;20573;-71
2022/05/24 00:56:07;;;;;;;3.17;1.70;;;22.80;54.80;;;;;;4956061;28;20223;-71
2022/05/24 00:58:39;;;;;;;1.70;1.60;;;22.80;54.80;;;;;;4955898;29;20361;-71
2022/05/24 01:01:16;;;;;;;2.85;1.60;;;22.80;54.90;;;;;;4956136;28;20238;-71
2022/05/24 01:03:43;;;;;;;1.50;1.40;;;22.90;55.00;;;;;;4955860;28;20201;-71
2022/05/24 01:06:11;;;;;;;1.88;1.63;;;22.80;54.90;;;;;;4955873;28;20218;-71
2022/05/24 01:08:38;;;;;;;1.92;1.60;;;22.80;54.90;;;;;;4955857;28;20203;-71
2022/05/24 01:11:06;;;;;;;2.03;1.50;;;22.80;54.90;;;;;;4956965;28;20660;-71
2022/05/24 01:13:33;;;;;;;4.30;2.78;;;22.80;54.90;;;;;;4956152;28;20759;-71
2022/05/24 01:16:01;;;;;;;1.65;1.55;;;22.80;54.90;;;;;;4956611;28;20226;-71
2022/05/24 01:18:28;;;;;;;1.63;1.52;;;22.80;55.00;;;;;;4958184;28;20691;-71
2022/05/24 01:20:57;;;;;;;1.40;1.30;;;22.80;54.90;;;;;;4956993;28;20253;-70
2022/05/24 01:23:32;;;;;;;1.58;1.48;;;22.80;55.00;;;;;;4956230;28;20758;-71
2022/05/24 01:26:10;;;;;;;2.47;1.30;;;22.80;55.00;;;;;;4956043;28;20222;-71
2022/05/24 01:28:42;;;;;;;1.58;1.20;;;22.80;55.00;;;;;;4957224;29;20179;-71
2022/05/24 01:31:09;;;;;;;2.45;1.50;;;22.80;55.00;;;;;;4955640;29;20674;-71
2022/05/24 01:36:23;;;;;;;1.40;1.30;;;22.80;55.00;;;;;;4955334;28;20232;-71
2022/05/24 01:38:51;;;;;;;1.40;1.30;;;22.80;54.90;;;;;;4955383;28;20579;-72
2022/05/24 01:41:19;;;;;;;1.70;1.60;;;22.70;54.90;;;;;;4955505;28;20214;-71
2022/05/24 01:43:48;;;;;;;3.03;1.60;;;22.80;55.00;;;;;;4956133;28;20289;-71
2022/05/24 01:46:15;;;;;;;2.90;1.48;;;22.80;55.00;;;;;;4955489;28;20233;-71
2022/05/24 01:48:46;;;;;;;1.50;1.40;;;22.80;55.10;;;;;;4955634;28;20199;-70
2022/05/24 01:51:16;;;;;;;1.58;1.38;;;22.80;55.00;;;;;;4955322;29;20194;-71
2022/05/24 01:53:45;;;;;;;1.98;1.40;;;22.70;54.90;;;;;;4955024;28;20206;-71
2022/05/24 01:56:13;;;;;;;2.75;1.48;;;22.80;55.10;;;;;;4955208;28;20215;-71
2022/05/24 01:58:41;;;;;;;2.08;1.48;;;22.80;55.10;;;;;;4954720;28;20215;-71
2022/05/24 02:01:13;;;;;;;1.63;1.52;;;22.70;55.00;;;;;;4956365;28;20207;-70
2022/05/24 02:03:41;;;;;;;1.88;1.35;;;22.70;55.00;;;;;;4955136;28;20556;-71
2022/05/24 02:06:21;;;;;;;1.40;1.30;;;22.70;54.90;;;;;;4954828;28;20230;-71
2022/05/24 02:08:49;;;;;;;1.45;1.35;;;22.70;55.60;;;;;;4955440;29;20194;-71
2022/05/24 02:11:17;;;;;;;3.17;1.17;;;22.70;55.00;;;;;;4956052;28;20194;-71
2022/05/24 02:13:44;;;;;;;2.08;1.27;;;22.70;55.00;;;;;;4956543;28;20211;-71
2022/05/24 02:16:15;;;;;;;1.30;1.30;;;22.70;55.10;;;;;;4955667;28;20269;-71
2022/05/24 02:18:43;;;;;;;1.40;1.30;;;22.70;55.10;;;;;;4954788;29;20313;-72
2022/05/24 02:21:11;;;;;;;1.60;1.27;;;22.70;55.00;;;;;;4954489;28;20277;-71
2022/05/24 02:23:40;;;;;;;1.58;1.25;;;22.70;55.10;;;;;;4954381;29;20277;-71
2022/05/24 02:26:08;;;;;;;1.27;1.20;;;22.70;55.10;;;;;;4954311;28;20223;-71
2022/05/24 02:28:37;;;;;;;2.00;1.20;;;22.70;55.20;;;;;;4954367;28;20201;-71
2022/05/24 02:31:06;;;;;;;1.23;1.20;;;22.70;55.10;;;;;;4954129;28;20209;-72
2022/05/24 02:33:34;;;;;;;1.20;1.10;;;22.70;55.10;;;;;;4955904;28;20659;-71
2022/05/24 02:36:01;;;;;;;1.63;1.30;;;22.70;55.70;;;;;;4954247;28;20273;-71
2022/05/24 02:38:28;;;;;;;1.20;1.20;;;22.70;55.10;;;;;;4955586;28;20213;-71
2022/05/24 02:43:40;;;;;;;4.25;1.50;;;22.70;55.10;;;;;;4955849;28;20181;-71
2022/05/24 02:46:08;;;;;;;1.35;1.30;;;22.70;55.00;;;;;;4954896;28;20711;-71
2022/05/24 02:48:36;;;;;;;1.58;1.10;;;22.60;54.90;;;;;;4954881;28;20195;-71
2022/05/24 02:51:09;;;;;;;1.30;1.20;;;22.60;54.90;;;;;;4954233;29;20218;-71
2022/05/24 02:53:37;;;;;;;1.88;1.20;;;22.60;54.90;;;;;;4954607;29;20285;-71
2022/05/24 02:56:05;;;;;;;1.95;1.23;;;22.60;55.00;;;;;;4955950;28;20214;-71
2022/05/24 02:58:32;;;;;;;1.77;1.20;;;22.60;55.00;;;;;;4956063;28;20210;-71
2022/05/24 03:00:59;;;;;;;1.33;1.20;;;22.60;54.90;;;;;;4960088;28;20187;-71
2022/05/24 03:03:27;;;;;;;1.35;1.33;;;22.60;55.00;;;;;;4958424;29;20191;-71
2022/05/24 03:05:55;;;;;;;1.23;1.13;;;22.60;55.00;;;;;;4955479;28;20297;-71
2022/05/24 03:11:09;;;;;;;1.35;1.27;;;22.60;54.90;;;;;;4955792;28;20179;-71
2022/05/24 03:16:20;;;;;;;1.27;1.20;;;22.60;55.00;;;;;;4956733;28;20223;-70
2022/05/24 03:18:48;;;;;;;1.20;1.10;;;22.60;54.90;;;;;;4957680;29;20614;-71
2022/05/24 03:21:16;;;;;;;1.10;1.10;;;22.60;54.90;;;;;;4957722;28;20550;-71
2022/05/24 03:23:43;;;;;;;1.08;1.08;;;22.60;54.90;;;;;;4959276;28;20277;-71
2022/05/24 03:26:11;;;;;;;1.50;1.40;;;22.60;54.90;;;;;;4957893;28;20218;-71
2022/05/24 03:28:38;;;;;;;1.48;1.40;;;22.60;54.70;;;;;;4957537;28;20197;-71
2022/05/24 03:31:06;;;;;;;1.30;1.20;;;22.70;54.70;;;;;;4958776;28;20199;-71
2022/05/24 03:33:33;;;;;;;1.27;1.17;;;22.70;54.60;;;;;;4957462;28;20234;-70
2022/05/24 03:36:01;;;;;;;1.63;1.30;;;22.70;54.60;;;;;;4957659;28;20704;-71
2022/05/24 03:38:29;;;;;;;1.10;1.10;;;22.70;54.60;;;;;;4958748;28;20624;-71
2022/05/24 03:40:56;;;;;;;1.30;1.25;;;22.80;54.50;;;;;;4958997;28;20190;-71
2022/05/24 03:43:23;;;;;;;1.45;1.13;;;22.80;54.50;;;;;;4957731;28;20199;-71
2022/05/24 03:45:50;;;;;;;1.30;1.05;;;22.80;54.50;;;;;;4958315;28;20301;-71
2022/05/24 03:48:17;;;;;;;1.20;1.20;;;22.80;54.40;;;;;;4957279;29;20332;-72
2022/05/24 03:50:44;;;;;;;1.10;1.10;;;22.80;54.40;;;;;;4957328;28;20226;-71
2022/05/24 03:53:11;;;;;;;1.17;1.13;;;22.80;54.40;;;;;;4957157;28;20198;-72
2022/05/24 03:55:40;;;;;;;1.75;1.40;;;22.80;54.40;;;;;;4958463;28;20222;-71
2022/05/24 03:58:07;;;;;;;1.30;1.20;;;22.80;55.00;;;;;;4958091;28;20219;-71
2022/05/24 04:00:35;;;;;;;1.30;1.20;;;22.80;54.30;;;;;;4956835;28;20274;-71
2022/05/24 04:03:03;;;;;;;1.40;1.30;;;22.80;54.30;;;;;;4956798;28;20203;-71
2022/05/24 04:05:30;;;;;;;1.02;1.02;;;22.80;54.30;;;;;;4956687;28;20266;-71
2022/05/24 04:07:58;;;;;;;1.00;1.00;;;22.80;54.30;;;;;;4956804;29;20195;-71
2022/05/24 04:10:28;;;;;;;1.20;1.10;;;22.90;54.40;;;;;;4956782;28;20203;-71
2022/05/24 04:12:56;;;;;;;1.23;1.20;;;22.80;54.30;;;;;;4956374;28;20222;-71
2022/05/24 04:15:24;;;;;;;1.35;1.20;;;22.80;54.30;;;;;;4956535;28;20612;-71
2022/05/24 04:17:52;;;;;;;2.05;1.17;;;22.80;54.40;;;;;;4956550;28;20245;-71
2022/05/24 04:20:20;;;;;;;1.15;1.10;;;22.80;54.40;;;;;;4957207;28;20199;-71
2022/05/24 04:22:47;;;;;;;1.77;1.05;;;22.80;54.30;;;;;;4957437;28;20584;-71
2022/05/24 04:25:14;;;;;;;1.10;1.10;;;22.80;54.30;;;;;;4957346;28;20195;-71
2022/05/24 04:27:41;;;;;;;1.35;1.25;;;22.80;54.30;;;;;;4955656;28;20199;-71
2022/05/24 04:30:11;;;;;;;1.20;1.20;;;22.80;54.30;;;;;;4957923;28;20290;-71
2022/05/24 04:32:38;;;;;;;1.40;1.30;;;22.80;54.40;;;;;;4956467;28;20206;-71
2022/05/24 04:35:06;;;;;;;1.95;1.27;;;22.80;54.40;;;;;;4957547;28;20254;-72
2022/05/24 04:37:33;;;;;;;1.30;1.20;;;22.80;54.40;;;;;;4956139;28;20294;-71
2022/05/24 04:40:00;;;;;;;1.10;1.10;;;22.80;54.40;;;;;;4957349;28;20202;-71
2022/05/24 04:42:26;;;;;;;1.27;1.17;;;22.80;54.40;;;;;;4956014;28;20199;-71
2022/05/24 04:44:54;;;;;;;1.10;1.10;;;22.80;54.50;;;;;;4956138;28;20202;-71
2022/05/24 04:47:23;;;;;;;1.00;1.00;;;22.80;54.50;;;;;;4957329;28;20246;-71
2022/05/24 04:49:54;;;;;;;1.00;1.00;;;22.80;54.50;;;;;;4956236;29;20211;-71
2022/05/24 04:52:23;;;;;;;2.10;1.30;;;22.80;54.50;;;;;;4956891;28;20194;-71
2022/05/24 04:54:51;;;;;;;1.17;1.08;;;22.80;54.50;;;;;;4957004;28;20226;-71
2022/05/24 04:57:18;;;;;;;1.10;1.00;;;22.70;54.50;;;;;;4955849;28;20219;-71
2022/05/24 04:59:46;;;;;;;1.50;1.20;;;22.70;54.60;;;;;;4956116;28;20241;-70
2022/05/24 05:02:13;;;;;;;1.17;0.93;;;22.70;54.60;;;;;;4957335;28;20193;-70
2022/05/24 05:04:42;;;;;;;1.10;1.00;;;22.70;54.60;;;;;;4957264;28;20195;-71
2022/05/24 05:07:09;;;;;;;1.65;1.10;;;22.70;54.70;;;;;;4955815;28;20253;-71
2022/05/24 05:09:38;;;;;;;1.00;1.00;;;22.70;54.60;;;;;;4955835;28;20195;-71
2022/05/24 05:12:06;;;;;;;1.10;1.10;;;22.70;54.70;;;;;;4955622;28;20202;-72
2022/05/24 05:14:33;;;;;;;1.90;1.10;;;22.70;54.70;;;;;;4956013;28;20241;-71
2022/05/24 05:17:01;;;;;;;2.00;1.05;;;22.70;54.80;;;;;;4956223;28;20234;-72
2022/05/24 05:19:29;;;;;;;1.35;0.90;;;22.70;54.80;;;;;;4956932;28;20206;-73
2022/05/24 05:21:57;;;;;;;1.10;1.10;;;22.70;54.80;;;;;;4960019;28;20251;-72
2022/05/24 05:24:24;;;;;;;1.38;1.10;;;22.70;54.80;;;;;;4968269;28;20279;-71
2022/05/24 05:26:51;;;;;;;0.95;0.95;;;22.70;54.80;;;;;;4956286;28;20233;-71
2022/05/24 05:31:16;;;;;;;1.33;1.23;;;22.70;54.80;;;;;;4956560;28;20206;-71
2022/05/24 05:32:06;;;;;;;0.88;0.88;;;22.70;54.80;;;;;;4957132;28;20198;-71
2022/05/24 05:34:33;;;;;;;1.20;1.10;;;22.70;54.80;;;;;;4955700;28;20258;-71
2022/05/24 05:37:05;;;;;;;1.25;1.02;;;22.80;54.90;;;;;;4955553;28;20241;-71
2022/05/24 05:39:32;;;;;;;1.20;0.98;;;22.80;54.90;;;;;;4957454;28;20202;-71
2022/05/24 05:42:01;;;;;;;0.95;0.95;;;22.80;54.80;;;;;;4958188;28;20202;-72
2022/05/24 05:44:29;;;;;;;0.90;0.90;;;22.80;54.90;;;;;;4957004;28;20314;-72
2022/05/24 05:46:57;;;;;;;1.52;1.17;;;22.80;55.50;;;;;;4955167;28;20261;-72
2022/05/24 05:49:23;;;;;;;1.10;1.08;;;22.90;54.90;;;;;;4954962;28;20210;-72
2022/05/24 05:51:51;;;;;;;1.08;0.98;;;22.90;54.80;;;;;;4954988;28;20549;-72
2022/05/24 05:54:21;;;;;;;1.35;1.27;;;22.90;54.80;;;;;;4956749;28;20656;-72
2022/05/24 05:56:48;;;;;;;1.10;1.10;;;22.90;54.70;;;;;;4955569;28;20218;-72
2022/05/24 05:59:15;;;;;;;1.52;1.10;;;23.00;54.60;;;;;;4955648;28;20226;-71
2022/05/24 06:01:42;;;;;;;1.00;0.98;;;23.00;54.40;;;;;;4955276;28;20675;-72
2022/05/24 06:04:10;;;;;;;1.58;1.17;;;23.10;54.20;;;;;;4955457;28;20217;-72
2022/05/24 06:06:40;;;;;;;1.20;1.20;;;23.10;54.10;;;;;;4955674;28;20230;-72
2022/05/24 06:09:07;;;;;;;1.27;1.10;;;23.10;54.10;;;;;;4963534;28;20214;-72
2022/05/24 06:11:35;;;;;;;0.95;0.95;;;23.20;54.00;;;;;;4970332;28;20250;-72
2022/05/24 06:14:03;;;;;;;1.20;1.10;;;23.30;54.00;;;;;;4956089;28;20203;-72
2022/05/24 06:16:30;;;;;;;2.00;1.20;;;23.30;53.90;;;;;;4954600;28;20219;-72
2022/05/24 06:18:57;;;;;;;1.25;1.17;;;23.50;53.70;;;;;;4954475;28;20225;-72
2022/05/24 06:21:24;;;;;;;1.30;1.20;;;23.70;53.10;;;;;;4955997;28;20194;-72
2022/05/24 06:23:52;;;;;;;2.05;1.10;;;24.00;52.60;;;;;;4954508;28;20307;-72
2022/05/24 06:26:21;;;;;;;1.00;1.00;;;24.20;52.10;;;;;;4954532;28;20222;-72
2022/05/24 06:28:49;;;;;;;1.20;1.20;;;24.20;51.80;;;;;;4954356;28;20226;-72
2022/05/24 06:31:16;;;;;;;1.17;1.10;;;24.30;51.60;;;;;;4954415;28;20202;-71
2022/05/24 06:33:44;;;;;;;1.30;1.20;;;24.30;51.50;;;;;;4954474;29;20261;-72
2022/05/24 06:36:11;;;;;;;2.75;1.23;;;24.20;51.50;;;;;;4954271;28;20317;-72
2022/05/24 06:38:39;;;;;;;1.10;1.10;;;24.20;51.70;;;;;;4954214;28;20222;-72
2022/05/24 06:41:07;;;;;;;1.30;1.20;;;24.20;51.60;;;;;;4955016;29;20234;-71
2022/05/24 06:43:35;;;;;;;1.33;1.10;;;24.20;51.80;;;;;;4961589;29;20199;-73
2022/05/24 06:46:07;;;;;;;1.08;1.00;;;24.20;51.70;;;;;;4961014;28;20225;-72
2022/05/24 06:48:34;;;;;;;1.20;1.10;;;24.20;51.50;;;;;;4954498;28;20281;-72
2022/05/24 06:51:02;;;;;;;1.05;1.05;;;24.20;51.40;;;;;;4958733;28;20206;-72
2022/05/24 06:53:29;;;;;;;1.00;1.00;;;24.20;51.40;;;;;;4962101;29;20253;-72
2022/05/24 06:55:56;;;;;;;1.20;1.20;;;24.20;51.40;;;;;;4961209;28;20222;-72
2022/05/24 06:58:23;;;;;;;2.03;1.20;;;24.20;51.30;;;;;;4960737;28;20274;-72
2022/05/24 07:03:36;;;;;;;1.17;1.15;;;24.20;51.40;;;;;;4960660;28;20190;-72
2022/05/24 07:06:05;;;;;;;1.40;1.20;;;24.20;51.20;;;;;;4960313;28;20253;-72
2022/05/24 07:08:32;;;;;;;1.10;1.10;;;24.30;51.40;;;;;;4960206;28;20591;-72
2022/05/24 07:11:00;;;;;;;1.30;1.20;;;24.20;51.20;;;;;;4960669;28;20289;-72
2022/05/24 07:13:27;;;;;;;1.10;1.05;;;24.20;51.30;;;;;;4960541;28;20211;-72
2022/05/24 07:15:54;;;;;;;1.33;1.23;;;24.20;51.30;;;;;;4960338;28;20310;-72
2022/05/24 07:18:22;;;;;;;1.30;1.15;;;24.20;51.30;;;;;;4960441;28;20209;-72
2022/05/24 07:20:50;;;;;;;1.02;0.95;;;24.20;51.10;;;;;;4960034;28;20203;-71
2022/05/24 07:23:18;;;;;;;0.80;0.80;;;24.10;51.10;;;;;;4960101;28;20206;-72
2022/05/24 07:25:46;;;;;;;1.00;1.00;;;24.10;51.00;;;;;;4961271;28;20724;-72
2022/05/24 07:28:15;;;;;;;3.45;1.05;;;24.10;50.80;;;;;;4959980;28;20207;-72
2022/05/24 07:30:43;;;;;;;3.63;1.13;;;24.00;50.70;;;;;;4960361;28;20257;-72
2022/05/24 07:33:10;;;;;;;1.17;1.10;;;24.00;50.60;;;;;;4959922;28;20651;-71
2022/05/24 07:35:38;;;;;;;1.05;1.00;;;24.00;50.70;;;;;;4960194;28;20219;-71
2022/05/24 07:38:08;;;;;;;1.20;1.10;;;24.00;50.70;;;;;;4961612;28;20586;-71
2022/05/24 07:46:08;;;;;;;0.90;0.90;;;23.90;50.80;;;;;;4959969;28;20222;-72
2022/05/24 07:48:35;;;;;;;0.90;0.90;;;23.90;50.80;;;;;;4960344;29;20199;-72
2022/05/24 07:51:03;;;;;;;0.98;0.90;;;23.90;50.70;;;;;;4961616;29;20195;-72
2022/05/24 07:53:32;;;;;;;1.00;1.00;;;23.90;50.50;;;;;;4961461;29;20222;-72
2022/05/24 07:55:59;;;;;;;1.20;1.05;;;23.90;50.70;;;;;;4960109;28;20242;-72
2022/05/24 07:58:27;;;;;;;1.13;0.95;;;23.90;50.80;;;;;;4960343;28;20194;-72
2022/05/24 08:00:55;;;;;;;0.90;0.90;;;23.80;50.70;;;;;;4961110;28;20201;-72
2022/05/24 08:03:22;;;;;;;1.10;1.00;;;23.80;50.90;;;;;;4957592;28;20209;-72
2022/05/24 08:05:49;;;;;;;1.25;0.90;;;23.80;51.50;;;;;;4957132;28;20223;-72
2022/05/24 08:08:17;;;;;;;1.52;1.05;;;23.80;51.00;;;;;;4956875;28;20727;-72
2022/05/24 08:10:45;;;;;;;0.80;0.80;;;23.90;51.30;;;;;;4958171;28;20195;-71
2022/05/24 08:13:13;;;;;;;1.15;1.00;;;24.10;51.20;;;;;;4956510;28;20219;-72
2022/05/24 08:15:40;;;;;;;1.00;1.00;;;24.20;50.80;;;;;;4956782;28;20287;-72
2022/05/24 08:18:08;;;;;;;1.00;1.00;;;24.40;50.60;;;;;;4956565;29;20261;-72
2022/05/24 08:20:38;;;;;;;1.00;1.00;;;24.50;50.30;;;;;;4957591;28;20217;-72
2022/05/24 08:23:07;;;;;;;0.88;0.88;;;24.50;50.00;;;;;;4956381;29;20237;-72
2022/05/24 08:25:34;;;;;;;0.82;0.82;;;24.50;50.00;;;;;;4956556;28;20273;-72
2022/05/24 08:28:07;;;;;;;1.00;1.00;;;24.50;50.00;;;;;;4958028;28;20202;-72
2022/05/24 08:30:34;;;;;;;0.90;0.90;;;24.50;50.00;;;;;;4957713;28;20664;-72
2022/05/24 08:33:04;;;;;;;0.82;0.82;;;24.50;49.90;;;;;;4957920;28;20199;-72
2022/05/24 08:35:31;;;;;;;1.00;0.90;;;24.50;49.80;;;;;;4956201;28;20226;-72
2022/05/24 08:37:59;;;;;;;0.80;0.80;;;24.50;50.00;;;;;;4957846;28;20194;-72
2022/05/24 08:40:26;;;;;;;0.90;0.90;;;24.50;49.90;;;;;;4957420;28;20206;-72
2022/05/24 08:43:31;;;;;;;0.95;0.95;;;24.60;49.80;;;;;;4957483;28;20199;-72
2022/05/24 08:48:51;;;;;;;0.80;0.80;;;24.60;49.80;;;;;;4956336;28;20195;-72
2022/05/24 08:51:21;;;;;;;1.45;0.95;;;24.60;49.60;;;;;;4956259;28;20253;-72
2022/05/24 08:53:50;;;;;;;0.95;0.95;;;24.60;49.60;;;;;;4956197;28;20201;-72
2022/05/24 08:56:19;;;;;;;0.90;0.90;;;24.70;49.80;;;;;;4955866;28;20223;-72
2022/05/24 08:58:50;;;;;;;1.35;0.90;;;24.70;49.60;;;;;;4957081;28;20198;-72
2022/05/24 09:01:25;;;;;;;1.08;1.08;;;24.70;49.60;;;;;;4955993;28;20242;-72
2022/05/24 09:03:52;;;;;;;1.00;1.00;;;24.70;49.60;;;;;;4955951;28;20286;-72
2022/05/24 09:06:30;;;;;;;0.80;0.80;;;24.70;49.80;;;;;;4957237;28;20651;-72
2022/05/24 09:09:03;;;;;;;0.93;0.93;;;24.60;49.80;;;;;;4956158;29;20198;-72
2022/05/24 09:11:36;;;;;;;0.82;0.80;;;24.60;49.80;;;;;;4955988;28;20207;-72
2022/05/24 09:14:12;;;;;;;0.82;0.80;;;24.70;49.80;;;;;;4957018;28;20206;-71
2022/05/24 09:16:47;;;;;;;1.02;1.02;;;24.70;49.90;;;;;;4956028;28;20218;-71
2022/05/24 09:19:17;;;;;;;0.88;0.88;;;24.70;49.60;;;;;;4958422;28;20265;-72
2022/05/24 09:21:47;;;;;;;0.90;0.90;;;24.70;49.50;;;;;;4955859;28;20660;-72
2022/05/24 09:24:19;;;;;;;0.93;0.90;;;24.70;49.50;;;;;;4955808;29;20273;-72
2022/05/24 09:27:07;;;;;;;1.88;0.98;;;24.80;49.60;;;;;;4957074;28;20256;-72
2022/05/24 09:29:35;;;;;;;0.80;0.80;;;24.80;49.60;;;;;;4955665;28;20656;-72
2022/05/24 09:32:08;;;;;;;1.00;1.00;;;24.90;49.30;;;;;;4955639;28;20203;-72
2022/05/24 09:34:36;;;;;;;0.90;0.90;;;24.90;49.10;;;;;;4956712;28;20180;-72
2022/05/24 09:37:05;;;;;;;1.05;1.05;;;25.00;49.10;;;;;;4955324;28;20222;-72
2022/05/24 09:39:33;;;;;;;0.95;0.90;;;25.00;49.10;;;;;;4956535;28;20289;-72
2022/05/24 09:42:01;;;;;;;0.90;0.90;;;25.10;48.90;;;;;;4956250;28;20199;-72
2022/05/24 09:44:28;;;;;;;0.80;0.77;;;25.20;48.90;;;;;;4955283;28;20195;-72
2022/05/24 09:46:56;;;;;;;0.80;0.80;;;25.30;48.50;;;;;;4954939;28;20222;-72
2022/05/24 09:49:28;;;;;;;0.90;0.90;;;25.50;48.20;;;;;;4956416;28;20250;-72
2022/05/24 09:51:56;;;;;;;0.90;0.90;;;25.70;47.90;;;;;;4955236;28;20202;-72
2022/05/24 09:54:25;;;;;;;0.80;0.80;;;25.80;47.50;;;;;;4955053;28;20203;-72
2022/05/24 09:57:01;;;;;;;0.77;0.77;;;25.90;47.30;;;;;;4955983;28;20222;-72
2022/05/24 09:59:28;;;;;;;1.40;0.70;;;26.00;47.20;;;;;;4955016;28;20590;-72
2022/05/24 10:01:55;;;;;;;1.08;0.98;;;26.00;46.90;;;;;;4954803;29;20686;-72
2022/05/24 10:04:26;;;;;;;0.90;0.90;;;26.00;46.90;;;;;;4954763;28;20569;-72
2022/05/24 10:06:56;;;;;;;0.80;0.80;;;26.00;46.80;;;;;;4956131;28;20601;-72
2022/05/24 10:09:45;;;;;;;0.80;0.80;;;26.10;46.80;;;;;;4956026;28;20186;-72
2022/05/24 10:12:18;;;;;;;0.80;0.80;;;26.10;46.60;;;;;;4949452;28;20203;-72
2022/05/24 10:14:50;;;;;;;0.90;0.90;;;26.10;46.60;;;;;;4956266;28;20190;-72
2022/05/24 10:17:26;;;;;;;0.80;0.80;;;26.10;46.40;;;;;;4956626;28;20670;-72
2022/05/24 10:20:03;;;;;;;0.90;0.90;;;26.20;46.30;;;;;;4965136;28;20238;-72
2022/05/24 10:22:36;;;;;;;0.90;0.90;;;26.20;46.20;;;;;;4964075;28;20286;-72
2022/05/24 10:25:09;;;;;;;0.90;0.90;;;26.20;46.20;;;;;;4956463;28;20767;-71
2022/05/24 10:27:40;;;;;;;1.10;0.90;;;26.20;46.00;;;;;;4955418;28;20194;-72
2022/05/24 10:30:09;;;;;;;0.73;0.73;;;26.30;46.00;;;;;;4956210;28;20178;-72
2022/05/24 10:38:28;;;;;;;0.85;0.85;;;26.30;46.10;;;;;;4954710;28;20333;-72
2022/05/24 10:41:04;;;;;;;0.90;0.90;;;26.30;46.00;;;;;;4954388;28;20652;-72
2022/05/24 10:43:55;;;;;;;0.80;0.80;;;26.30;45.90;;;;;;4955595;28;20698;-72
2022/05/24 10:46:26;;;;;;;1.00;1.00;;;26.30;46.00;;;;;;4956169;28;20734;-72
2022/05/24 10:49:03;;;;;;;0.80;0.80;;;26.20;46.00;;;;;;4954415;28;20206;-72
2022/05/24 10:51:34;;;;;;;0.88;0.88;;;26.30;46.00;;;;;;4954577;29;20195;-72
2022/05/24 10:54:04;;;;;;;1.27;0.82;;;26.30;46.10;;;;;;4955616;28;20230;-71
2022/05/24 10:56:35;;;;;;;0.80;0.80;;;26.20;46.00;;;;;;4954694;28;20229;-72
2022/05/24 10:59:08;;;;;;;0.95;0.95;;;26.20;46.00;;;;;;4954412;29;20190;-72
2022/05/24 11:01:38;;;;;;;0.77;0.77;;;26.30;46.10;;;;;;4954450;28;20254;-72
2022/05/24 11:04:07;;;;;;;0.85;0.85;;;26.30;46.60;;;;;;4954246;28;20277;-72
2022/05/24 11:06:38;;;;;;;0.70;0.70;;;26.30;46.00;;;;;;4955521;28;20234;-72
2022/05/24 11:09:07;;;;;;;1.00;1.00;;;26.30;46.00;;;;;;4954383;28;20706;-72
2022/05/24 11:11:36;;;;;;;0.70;0.70;;;26.20;46.00;;;;;;4954207;28;20251;-72
2022/05/24 11:14:06;;;;;;;0.73;0.73;;;26.30;46.10;;;;;;4954594;28;20214;-72
2022/05/24 11:16:37;;;;;;;0.80;0.80;;;26.20;46.00;;;;;;4954062;28;20225;-70
2022/05/24 11:19:07;;;;;;;0.90;0.90;;;26.20;46.00;;;;;;4953953;28;20211;-70
2022/05/24 11:21:38;;;;;;;0.80;0.80;;;26.20;46.10;;;;;;4954140;28;20402;-71
2022/05/24 11:26:48;;;;;;;0.70;0.70;;;26.20;46.00;;;;;;5145382;23;20635;-71
2022/05/24 11:29:18;;;;;;;0.82;0.82;;;26.20;46.00;;;;;;4974739;28;20190;-71
2022/05/24 11:31:47;;;;;;;0.90;0.90;;;26.20;46.00;;;;;;4974694;28;20677;-71
2022/05/24 11:34:19;;;;;;;0.70;0.70;;;26.20;46.20;;;;;;4972990;28;20669;-71
2022/05/24 11:36:49;;;;;;;0.90;0.90;;;26.20;46.10;;;;;;4974846;28;20368;-71
2022/05/24 11:39:23;;;;;;;0.88;0.88;;;26.20;46.10;;;;;;4976965;28;20257;-71
2022/05/24 11:41:50;;;;;;;0.90;0.90;;;26.20;46.10;;;;;;4977154;28;20686;-71
2022/05/24 11:44:30;;;;;;;0.80;0.80;;;26.20;46.10;;;;;;4978458;28;20200;-71
2022/05/24 11:46:57;;;;;;;0.80;0.80;;;26.20;46.10;;;;;;4978241;28;20232;-71
2022/05/24 11:49:58;;;;;;;0.80;0.80;;;26.20;46.00;;;;;;4981468;28;20198;-71
2022/05/24 11:52:44;;;;;;;0.80;0.80;;;26.20;46.00;;;;;;4976753;28;20201;-71
2022/05/24 11:55:11;;;;;;;0.70;0.70;;;26.20;46.00;;;;;;4977254;28;20197;-71
2022/05/24 11:57:40;;;;;;;0.70;0.70;;;26.20;46.00;;;;;;4978449;28;20233;-71
2022/05/24 12:00:09;;;;;;;0.77;0.77;;;26.20;46.00;;;;;;4978049;28;20227;-70
2022/05/24 12:08:38;;;;;;;0.75;0.75;;;26.10;46.30;;;;;;4977474;28;20236;-70
2022/05/24 12:11:14;;;;;;;0.90;0.90;;;26.10;46.30;;;;;;4976335;28;20204;-71
2022/05/24 12:14:13;;;;;;;0.70;0.70;;;26.10;46.30;;;;;;4976247;28;20189;-71
2022/05/24 12:16:43;;;;;;;0.73;0.73;;;26.10;46.30;;;;;;4969540;28;20284;-71
2022/05/24 12:19:10;;;;;;;0.73;0.73;;;26.10;46.30;;;;;;4976219;28;20636;-71
2022/05/24 12:21:40;;;;;;;0.80;0.80;;;26.10;46.30;;;;;;4975995;28;20213;-71
2022/05/24 12:24:34;;;;;;;0.70;0.70;;;26.10;46.30;;;;;;4976028;28;20579;-71
2022/05/24 12:27:14;;;;;;;0.80;0.80;;;26.10;46.30;;;;;;4976039;28;20602;-71
2022/05/24 12:29:41;;;;;;;0.90;0.90;;;26.10;46.20;;;;;;4975964;28;20225;-70
2022/05/24 12:32:08;;;;;;;0.80;0.80;;;26.10;46.20;;;;;;4976491;28;20204;-71
2022/05/24 12:34:35;;;;;;;0.82;0.82;;;26.10;46.20;;;;;;4984456;28;20190;-71
2022/05/24 12:37:07;;;;;;;0.80;0.80;;;26.10;46.30;;;;;;4976169;28;20218;-71
2022/05/24 12:39:35;;;;;;;1.58;0.80;;;26.10;46.30;;;;;;4977383;28;20200;-71
2022/05/24 12:42:06;;;;;;;0.90;0.90;;;26.00;46.10;;;;;;4976018;28;20209;-71
2022/05/24 12:44:34;;;;;;;0.70;0.70;;;26.00;46.20;;;;;;4975987;28;20202;-71
2022/05/24 12:47:13;;;;;;;0.80;0.80;;;26.00;46.20;;;;;;4975695;28;20221;-71
2022/05/24 12:49:54;;;;;;;0.88;0.88;;;26.00;46.20;;;;;;4975459;28;20575;-71
2022/05/24 12:52:22;;;;;;;0.82;0.82;;;26.00;46.20;;;;;;4976828;28;20301;-71
2022/05/24 12:54:51;;;;;;;0.73;0.73;;;26.00;46.20;;;;;;4977790;28;20252;-71
2022/05/24 12:57:20;;;;;;;0.60;0.60;;;26.10;46.30;;;;;;4975956;28;20217;-71
2022/05/24 12:59:52;;;;;;;0.80;0.80;;;26.10;46.30;;;;;;4975605;28;20233;-71
2022/05/24 13:02:28;;;;;;;0.80;0.80;;;26.00;46.30;;;;;;4975675;28;20297;-71
2022/05/24 13:04:56;;;;;;;0.65;0.65;;;26.00;46.40;;;;;;4977105;28;20202;-71
2022/05/24 13:07:38;;;;;;;0.88;0.80;;;26.00;46.40;;;;;;4976381;28;20225;-71
2022/05/24 13:10:22;;;;;;;0.80;0.80;;;26.00;46.40;;;;;;4983115;28;20192;-71
2022/05/24 13:12:50;;;;;;;0.85;0.85;;;26.00;46.40;;;;;;4978018;28;20601;-71
2022/05/24 13:15:18;;;;;;;0.70;0.70;;;26.00;46.50;;;;;;4977944;28;20257;-71
2022/05/24 13:17:47;;;;;;;0.90;0.90;;;25.90;46.50;;;;;;4975132;28;20580;-71
2022/05/24 13:20:27;;;;;;;0.80;0.80;;;25.90;46.50;;;;;;4975268;28;20209;-71
2022/05/24 13:22:55;;;;;;;0.80;0.80;;;26.00;46.50;;;;;;4975335;28;20248;-71
2022/05/24 13:25:25;;;;;;;0.75;0.75;;;25.90;46.50;;;;;;4976682;28;20204;-71
2022/05/24 13:27:55;;;;;;;0.90;0.90;;;25.90;46.50;;;;;;4976536;28;20182;-71
2022/05/24 13:33:36;;;;;;;1.10;1.00;;;25.90;46.50;;;;;;4976582;28;20325;-71
2022/05/24 13:36:25;;;;;;;0.80;0.80;;;25.90;46.50;;;;;;4976358;28;20220;-70
2022/05/24 13:39:15;;;;;;;1.05;0.82;;;25.90;46.50;;;;;;4974834;28;20563;-71
2022/05/24 13:41:45;;;;;;;0.80;0.80;;;25.80;46.50;;;;;;4974965;28;20218;-70